sensor_id;sensor_type;location;lat;lon;timestamp;P1;durP1;ratioP1;P2;durP2;ratioP2
37001;SDS011;22913;51.910;8.374;2022-10-18T00:02:22;21.43;;;18.87;;
37001;SDS011;22913;51.910;8.374;2022-10-18T00:05:08;20.73;;;18.73;;
37001;SDS011;22913;51.910;8.374;2022-10-18T00:07:55;21.20;;;18.93;;
37001;SDS011;22913;51.910;8.374;2022-10-18T00:10:41;21.43;;;18.87;;
37001;SDS011;22913;51.910;8.374;2022-10-18T00:13:27;21.83;;;19.87;;
37001;SDS011;22913;51.910;8.374;2022-10-18T00:16:14;22.43;;;20.23;;
37001;SDS011;22913;51.910;8.374;2022-10-18T00:19:02;23.10;;;20.90;;
37001;SDS011;22913;51.910;8.374;2022-10-18T00:21:48;22.30;;;19.83;;
37001;SDS011;22913;51.910;8.374;2022-10-18T00:24:35;22.63;;;20.47;;
37001;SDS011;22913;51.910;8.374;2022-10-18T00:27:21;23.33;;;20.83;;
37001;SDS011;22913;51.910;8.374;2022-10-18T00:30:07;22.00;;;19.60;;
37001;SDS011;22913;51.910;8.374;2022-10-18T00:32:53;22.27;;;19.90;;
37001;SDS011;22913;51.910;8.374;2022-10-18T00:35:39;22.07;;;19.93;;
37001;SDS011;22913;51.910;8.374;2022-10-18T00:38:25;22.87;;;20.43;;
37001;SDS011;22913;51.910;8.374;2022-10-18T00:41:14;23.00;;;20.40;;
37001;SDS011;22913;51.910;8.374;2022-10-18T00:44:02;21.77;;;19.70;;
37001;SDS011;22913;51.910;8.374;2022-10-18T00:47:08;23.00;;;20.60;;
37001;SDS011;22913;51.910;8.374;2022-10-18T00:49:56;21.33;;;19.17;;
37001;SDS011;22913;51.910;8.374;2022-10-18T00:52:46;22.37;;;19.80;;
37001;SDS011;22913;51.910;8.374;2022-10-18T00:55:36;23.83;;;21.43;;
37001;SDS011;22913;51.910;8.374;2022-10-18T00:58:23;22.97;;;20.63;;
37001;SDS011;22913;51.910;8.374;2022-10-18T01:01:09;22.57;;;20.37;;
37001;SDS011;22913;51.910;8.374;2022-10-18T01:03:55;22.73;;;20.27;;
37001;SDS011;22913;51.910;8.374;2022-10-18T01:06:44;22.27;;;19.87;;
37001;SDS011;22913;51.910;8.374;2022-10-18T01:09:37;22.80;;;20.43;;
37001;SDS011;22913;51.910;8.374;2022-10-18T01:12:29;25.40;;;19.23;;
37001;SDS011;22913;51.910;8.374;2022-10-18T01:15:25;22.00;;;19.77;;
37001;SDS011;22913;51.910;8.374;2022-10-18T01:18:14;21.63;;;19.37;;
37001;SDS011;22913;51.910;8.374;2022-10-18T01:21:15;20.80;;;18.67;;
37001;SDS011;22913;51.910;8.374;2022-10-18T01:27:34;20.30;;;18.20;;
37001;SDS011;22913;51.910;8.374;2022-10-18T01:30:38;19.87;;;17.87;;
37001;SDS011;22913;51.910;8.374;2022-10-18T01:33:35;20.53;;;18.53;;
37001;SDS011;22913;51.910;8.374;2022-10-18T01:36:24;19.63;;;17.60;;
37001;SDS011;22913;51.910;8.374;2022-10-18T01:39:15;19.50;;;17.70;;
37001;SDS011;22913;51.910;8.374;2022-10-18T01:42:06;19.40;;;17.50;;
37001;SDS011;22913;51.910;8.374;2022-10-18T01:44:54;19.87;;;17.90;;
37001;SDS011;22913;51.910;8.374;2022-10-18T01:47:42;20.10;;;17.43;;
37001;SDS011;22913;51.910;8.374;2022-10-18T01:50:30;19.60;;;17.80;;
37001;SDS011;22913;51.910;8.374;2022-10-18T01:53:21;18.80;;;17.17;;
37001;SDS011;22913;51.910;8.374;2022-10-18T01:56:15;19.23;;;17.27;;
37001;SDS011;22913;51.910;8.374;2022-10-18T01:59:11;20.10;;;18.07;;
37001;SDS011;22913;51.910;8.374;2022-10-18T02:02:08;17.73;;;16.10;;
37001;SDS011;22913;51.910;8.374;2022-10-18T02:05:08;18.80;;;16.80;;
37001;SDS011;22913;51.910;8.374;2022-10-18T02:08:02;19.20;;;17.33;;
37001;SDS011;22913;51.910;8.374;2022-10-18T02:10:52;21.00;;;16.93;;
37001;SDS011;22913;51.910;8.374;2022-10-18T02:13:41;20.27;;;17.90;;
37001;SDS011;22913;51.910;8.374;2022-10-18T02:16:31;19.90;;;18.00;;
37001;SDS011;22913;51.910;8.374;2022-10-18T02:19:22;20.50;;;18.20;;
37001;SDS011;22913;51.910;8.374;2022-10-18T02:22:13;20.97;;;18.73;;
37001;SDS011;22913;51.910;8.374;2022-10-18T02:25:00;20.53;;;18.60;;
37001;SDS011;22913;51.910;8.374;2022-10-18T02:27:49;20.70;;;18.60;;
37001;SDS011;22913;51.910;8.374;2022-10-18T02:30:36;22.47;;;18.77;;
37001;SDS011;22913;51.910;8.374;2022-10-18T02:33:30;21.13;;;19.03;;
37001;SDS011;22913;51.910;8.374;2022-10-18T02:36:21;21.00;;;18.90;;
37001;SDS011;22913;51.910;8.374;2022-10-18T02:39:12;22.27;;;19.63;;
37001;SDS011;22913;51.910;8.374;2022-10-18T02:42:02;22.70;;;19.53;;
37001;SDS011;22913;51.910;8.374;2022-10-18T02:44:50;21.17;;;18.70;;
37001;SDS011;22913;51.910;8.374;2022-10-18T02:47:36;24.43;;;19.03;;
37001;SDS011;22913;51.910;8.374;2022-10-18T02:50:22;20.70;;;18.67;;
37001;SDS011;22913;51.910;8.374;2022-10-18T02:53:07;20.60;;;18.50;;
37001;SDS011;22913;51.910;8.374;2022-10-18T02:55:54;20.07;;;18.07;;
37001;SDS011;22913;51.910;8.374;2022-10-18T02:58:40;19.50;;;17.70;;
37001;SDS011;22913;51.910;8.374;2022-10-18T03:01:25;20.83;;;18.73;;
37001;SDS011;22913;51.910;8.374;2022-10-18T03:04:11;19.73;;;17.83;;
37001;SDS011;22913;51.910;8.374;2022-10-18T03:06:57;20.17;;;17.97;;
37001;SDS011;22913;51.910;8.374;2022-10-18T03:09:42;18.87;;;17.07;;
37001;SDS011;22913;51.910;8.374;2022-10-18T03:12:29;20.17;;;18.17;;
37001;SDS011;22913;51.910;8.374;2022-10-18T03:15:15;19.33;;;17.40;;
37001;SDS011;22913;51.910;8.374;2022-10-18T03:18:00;18.97;;;16.93;;
37001;SDS011;22913;51.910;8.374;2022-10-18T03:20:46;17.47;;;15.73;;
37001;SDS011;22913;51.910;8.374;2022-10-18T03:23:32;17.40;;;15.80;;
37001;SDS011;22913;51.910;8.374;2022-10-18T03:26:18;19.17;;;16.57;;
37001;SDS011;22913;51.910;8.374;2022-10-18T03:29:05;17.57;;;15.97;;
37001;SDS011;22913;51.910;8.374;2022-10-18T03:31:51;18.47;;;16.23;;
37001;SDS011;22913;51.910;8.374;2022-10-18T03:34:36;17.17;;;15.57;;
37001;SDS011;22913;51.910;8.374;2022-10-18T03:37:22;17.30;;;15.67;;
37001;SDS011;22913;51.910;8.374;2022-10-18T03:40:08;18.57;;;16.53;;
37001;SDS011;22913;51.910;8.374;2022-10-18T03:42:54;19.03;;;16.37;;
37001;SDS011;22913;51.910;8.374;2022-10-18T03:45:41;17.17;;;15.50;;
37001;SDS011;22913;51.910;8.374;2022-10-18T03:48:26;16.80;;;15.40;;
37001;SDS011;22913;51.910;8.374;2022-10-18T03:51:12;17.63;;;15.17;;
37001;SDS011;22913;51.910;8.374;2022-10-18T03:53:58;18.43;;;16.80;;
37001;SDS011;22913;51.910;8.374;2022-10-18T03:56:44;18.47;;;16.20;;
37001;SDS011;22913;51.910;8.374;2022-10-18T03:59:30;17.20;;;15.80;;
37001;SDS011;22913;51.910;8.374;2022-10-18T04:02:17;18.63;;;15.47;;
37001;SDS011;22913;51.910;8.374;2022-10-18T04:05:02;16.23;;;14.73;;
37001;SDS011;22913;51.910;8.374;2022-10-18T04:07:49;16.97;;;15.30;;
37001;SDS011;22913;51.910;8.374;2022-10-18T04:10:35;16.70;;;15.00;;
37001;SDS011;22913;51.910;8.374;2022-10-18T04:13:21;16.67;;;15.20;;
37001;SDS011;22913;51.910;8.374;2022-10-18T04:16:07;17.13;;;15.43;;
37001;SDS011;22913;51.910;8.374;2022-10-18T04:18:54;16.70;;;15.00;;
37001;SDS011;22913;51.910;8.374;2022-10-18T04:21:39;16.80;;;15.17;;
37001;SDS011;22913;51.910;8.374;2022-10-18T04:24:25;17.63;;;15.07;;
37001;SDS011;22913;51.910;8.374;2022-10-18T04:27:11;16.33;;;14.73;;
37001;SDS011;22913;51.910;8.374;2022-10-18T04:29:57;15.83;;;14.23;;
37001;SDS011;22913;51.910;8.374;2022-10-18T04:32:42;16.27;;;14.67;;
37001;SDS011;22913;51.910;8.374;2022-10-18T04:35:29;15.53;;;13.93;;
37001;SDS011;22913;51.910;8.374;2022-10-18T04:38:15;15.70;;;14.30;;
37001;SDS011;22913;51.910;8.374;2022-10-18T04:41:00;14.77;;;13.50;;
37001;SDS011;22913;51.910;8.374;2022-10-18T04:43:46;17.87;;;14.43;;
37001;SDS011;22913;51.910;8.374;2022-10-18T04:46:32;17.43;;;13.63;;
37001;SDS011;22913;51.910;8.374;2022-10-18T04:49:17;14.73;;;13.43;;
37001;SDS011;22913;51.910;8.374;2022-10-18T04:52:04;15.50;;;13.90;;
37001;SDS011;22913;51.910;8.374;2022-10-18T04:54:50;15.03;;;13.53;;
37001;SDS011;22913;51.910;8.374;2022-10-18T04:57:36;16.03;;;14.53;;
37001;SDS011;22913;51.910;8.374;2022-10-18T05:00:22;16.67;;;14.33;;
37001;SDS011;22913;51.910;8.374;2022-10-18T05:03:07;16.17;;;14.03;;
37001;SDS011;22913;51.910;8.374;2022-10-18T05:05:53;16.67;;;15.13;;
37001;SDS011;22913;51.910;8.374;2022-10-18T05:08:40;16.03;;;14.60;;
37001;SDS011;22913;51.910;8.374;2022-10-18T05:11:25;16.83;;;13.57;;
37001;SDS011;22913;51.910;8.374;2022-10-18T05:14:11;14.17;;;12.90;;
37001;SDS011;22913;51.910;8.374;2022-10-18T05:16:57;14.40;;;13.00;;
37001;SDS011;22913;51.910;8.374;2022-10-18T05:19:42;14.33;;;12.93;;
37001;SDS011;22913;51.910;8.374;2022-10-18T05:22:28;14.10;;;12.73;;
37001;SDS011;22913;51.910;8.374;2022-10-18T05:25:15;14.00;;;12.50;;
37001;SDS011;22913;51.910;8.374;2022-10-18T05:28:01;13.23;;;11.90;;
37001;SDS011;22913;51.910;8.374;2022-10-18T05:30:46;12.53;;;11.50;;
37001;SDS011;22913;51.910;8.374;2022-10-18T05:33:32;12.20;;;10.93;;
37001;SDS011;22913;51.910;8.374;2022-10-18T05:36:19;11.60;;;10.40;;
37001;SDS011;22913;51.910;8.374;2022-10-18T05:39:04;11.93;;;10.97;;
37001;SDS011;22913;51.910;8.374;2022-10-18T05:41:52;12.40;;;10.83;;
37001;SDS011;22913;51.910;8.374;2022-10-18T05:44:37;12.40;;;11.40;;
37001;SDS011;22913;51.910;8.374;2022-10-18T05:47:23;12.77;;;11.70;;
37001;SDS011;22913;51.910;8.374;2022-10-18T05:50:09;12.40;;;11.30;;
37001;SDS011;22913;51.910;8.374;2022-10-18T05:52:55;11.80;;;10.70;;
37001;SDS011;22913;51.910;8.374;2022-10-18T05:55:41;12.50;;;11.33;;
37001;SDS011;22913;51.910;8.374;2022-10-18T05:58:29;12.70;;;11.47;;
37001;SDS011;22913;51.910;8.374;2022-10-18T06:01:15;12.90;;;11.63;;
37001;SDS011;22913;51.910;8.374;2022-10-18T06:04:01;13.63;;;11.63;;
37001;SDS011;22913;51.910;8.374;2022-10-18T06:06:47;15.43;;;12.97;;
37001;SDS011;22913;51.910;8.374;2022-10-18T06:09:32;13.53;;;12.20;;
37001;SDS011;22913;51.910;8.374;2022-10-18T06:12:18;13.83;;;11.77;;
37001;SDS011;22913;51.910;8.374;2022-10-18T06:15:05;16.13;;;12.17;;
37001;SDS011;22913;51.910;8.374;2022-10-18T06:17:52;13.83;;;12.07;;
37001;SDS011;22913;51.910;8.374;2022-10-18T06:20:38;13.53;;;12.33;;
37001;SDS011;22913;51.910;8.374;2022-10-18T06:23:24;14.20;;;12.10;;
37001;SDS011;22913;51.910;8.374;2022-10-18T06:26:10;14.27;;;12.80;;
37001;SDS011;22913;51.910;8.374;2022-10-18T06:28:56;14.73;;;13.13;;
37001;SDS011;22913;51.910;8.374;2022-10-18T06:31:43;13.27;;;12.17;;
37001;SDS011;22913;51.910;8.374;2022-10-18T06:34:29;13.17;;;12.07;;
37001;SDS011;22913;51.910;8.374;2022-10-18T06:37:14;14.07;;;12.67;;
37001;SDS011;22913;51.910;8.374;2022-10-18T06:40:00;13.80;;;12.50;;
37001;SDS011;22913;51.910;8.374;2022-10-18T06:42:46;13.97;;;12.70;;
37001;SDS011;22913;51.910;8.374;2022-10-18T06:45:32;13.23;;;11.93;;
37001;SDS011;22913;51.910;8.374;2022-10-18T06:48:20;13.20;;;11.87;;
37001;SDS011;22913;51.910;8.374;2022-10-18T06:51:06;13.57;;;12.30;;
37001;SDS011;22913;51.910;8.374;2022-10-18T06:53:52;13.67;;;12.27;;
37001;SDS011;22913;51.910;8.374;2022-10-18T06:56:38;14.47;;;12.20;;
37001;SDS011;22913;51.910;8.374;2022-10-18T06:59:24;13.23;;;11.93;;
37001;SDS011;22913;51.910;8.374;2022-10-18T07:02:10;13.17;;;12.03;;
37001;SDS011;22913;51.910;8.374;2022-10-18T07:23:48;13.90;;;12.53;;
37001;SDS011;22913;51.910;8.374;2022-10-18T07:26:34;13.03;;;11.73;;
37001;SDS011;22913;51.910;8.374;2022-10-18T07:29:20;13.73;;;12.50;;
37001;SDS011;22913;51.910;8.374;2022-10-18T07:32:06;14.37;;;12.87;;
37001;SDS011;22913;51.910;8.374;2022-10-18T07:34:51;14.33;;;12.93;;
37001;SDS011;22913;51.910;8.374;2022-10-18T07:37:37;13.33;;;12.13;;
37001;SDS011;22913;51.910;8.374;2022-10-18T07:40:24;14.30;;;12.90;;
37001;SDS011;22913;51.910;8.374;2022-10-18T07:43:09;13.83;;;12.40;;
37001;SDS011;22913;51.910;8.374;2022-10-18T07:45:56;13.33;;;12.13;;
37001;SDS011;22913;51.910;8.374;2022-10-18T07:48:42;14.33;;;13.00;;
37001;SDS011;22913;51.910;8.374;2022-10-18T07:51:28;14.17;;;12.77;;
37001;SDS011;22913;51.910;8.374;2022-10-18T07:54:15;14.30;;;12.80;;
37001;SDS011;22913;51.910;8.374;2022-10-18T07:57:03;13.53;;;12.27;;
37001;SDS011;22913;51.910;8.374;2022-10-18T07:59:49;12.80;;;11.57;;
37001;SDS011;22913;51.910;8.374;2022-10-18T08:02:38;14.57;;;13.13;;
37001;SDS011;22913;51.910;8.374;2022-10-18T08:05:24;13.13;;;11.83;;
37001;SDS011;22913;51.910;8.374;2022-10-18T08:08:11;13.30;;;11.90;;
37001;SDS011;22913;51.910;8.374;2022-10-18T08:11:00;13.73;;;12.60;;
37001;SDS011;22913;51.910;8.374;2022-10-18T08:13:47;15.37;;;13.90;;
37001;SDS011;22913;51.910;8.374;2022-10-18T08:16:33;15.80;;;13.37;;
37001;SDS011;22913;51.910;8.374;2022-10-18T08:19:19;15.47;;;13.27;;
37001;SDS011;22913;51.910;8.374;2022-10-18T08:22:05;15.73;;;13.20;;
37001;SDS011;22913;51.910;8.374;2022-10-18T08:24:50;14.23;;;12.93;;
37001;SDS011;22913;51.910;8.374;2022-10-18T08:27:36;15.97;;;14.33;;
37001;SDS011;22913;51.910;8.374;2022-10-18T08:30:23;16.53;;;14.93;;
37001;SDS011;22913;51.910;8.374;2022-10-18T08:33:08;16.00;;;14.53;;
37001;SDS011;22913;51.910;8.374;2022-10-18T08:35:54;15.53;;;14.03;;
37001;SDS011;22913;51.910;8.374;2022-10-18T08:38:40;16.10;;;14.60;;
37001;SDS011;22913;51.910;8.374;2022-10-18T08:41:34;16.47;;;14.80;;
37001;SDS011;22913;51.910;8.374;2022-10-18T08:44:28;17.33;;;15.67;;
37001;SDS011;22913;51.910;8.374;2022-10-18T08:47:17;17.40;;;15.60;;
37001;SDS011;22913;51.910;8.374;2022-10-18T08:50:05;16.07;;;14.60;;
37001;SDS011;22913;51.910;8.374;2022-10-18T08:52:56;17.73;;;15.90;;
37001;SDS011;22913;51.910;8.374;2022-10-18T08:55:47;19.17;;;17.37;;
37001;SDS011;22913;51.910;8.374;2022-10-18T08:58:36;18.77;;;16.87;;
37001;SDS011;22913;51.910;8.374;2022-10-18T09:01:24;19.93;;;17.83;;
37001;SDS011;22913;51.910;8.374;2022-10-18T09:04:26;19.70;;;17.37;;
37001;SDS011;22913;51.910;8.374;2022-10-18T09:07:39;26.13;;;20.80;;
37001;SDS011;22913;51.910;8.374;2022-10-18T09:10:39;30.73;;;22.67;;
37001;SDS011;22913;51.910;8.374;2022-10-18T09:13:34;39.27;;;27.53;;
37001;SDS011;22913;51.910;8.374;2022-10-18T09:16:38;33.80;;;26.93;;
37001;SDS011;22913;51.910;8.374;2022-10-18T09:19:35;42.43;;;27.53;;
37001;SDS011;22913;51.910;8.374;2022-10-18T09:22:40;38.00;;;28.30;;
37001;SDS011;22913;51.910;8.374;2022-10-18T09:25:35;35.40;;;26.63;;
37001;SDS011;22913;51.910;8.374;2022-10-18T09:28:36;36.97;;;27.83;;
37001;SDS011;22913;51.910;8.374;2022-10-18T09:31:33;38.53;;;28.43;;
37001;SDS011;22913;51.910;8.374;2022-10-18T09:34:29;35.40;;;26.53;;
37001;SDS011;22913;51.910;8.374;2022-10-18T09:37:23;34.97;;;28.47;;
37001;SDS011;22913;51.910;8.374;2022-10-18T09:40:13;34.47;;;27.73;;
37001;SDS011;22913;51.910;8.374;2022-10-18T09:43:02;37.10;;;28.70;;
37001;SDS011;22913;51.910;8.374;2022-10-18T09:45:54;33.63;;;28.57;;
37001;SDS011;22913;51.910;8.374;2022-10-18T09:48:41;33.37;;;27.97;;
37001;SDS011;22913;51.910;8.374;2022-10-18T09:51:33;34.93;;;30.03;;
37001;SDS011;22913;51.910;8.374;2022-10-18T09:54:22;38.53;;;30.10;;
37001;SDS011;22913;51.910;8.374;2022-10-18T09:57:12;38.83;;;32.33;;
37001;SDS011;22913;51.910;8.374;2022-10-18T10:00:02;32.97;;;29.47;;
37001;SDS011;22913;51.910;8.374;2022-10-18T10:02:50;32.50;;;28.97;;
37001;SDS011;22913;51.910;8.374;2022-10-18T10:05:36;32.03;;;28.63;;
37001;SDS011;22913;51.910;8.374;2022-10-18T10:08:22;32.97;;;28.70;;
37001;SDS011;22913;51.910;8.374;2022-10-18T10:11:32;33.07;;;27.83;;
37001;SDS011;22913;51.910;8.374;2022-10-18T10:14:20;34.97;;;27.93;;
37001;SDS011;22913;51.910;8.374;2022-10-18T10:17:19;37.47;;;29.87;;
37001;SDS011;22913;51.910;8.374;2022-10-18T10:20:13;31.13;;;27.93;;
37001;SDS011;22913;51.910;8.374;2022-10-18T10:23:06;33.77;;;29.47;;
37001;SDS011;22913;51.910;8.374;2022-10-18T10:25:54;32.13;;;28.57;;
37001;SDS011;22913;51.910;8.374;2022-10-18T10:28:43;32.70;;;27.63;;
37001;SDS011;22913;51.910;8.374;2022-10-18T10:31:32;29.60;;;26.37;;
37001;SDS011;22913;51.910;8.374;2022-10-18T10:34:19;29.80;;;25.47;;
37001;SDS011;22913;51.910;8.374;2022-10-18T10:37:19;29.30;;;26.43;;
37001;SDS011;22913;51.910;8.374;2022-10-18T10:40:16;31.27;;;28.07;;
37001;SDS011;22913;51.910;8.374;2022-10-18T10:43:12;30.93;;;27.67;;
37001;SDS011;22913;51.910;8.374;2022-10-18T10:46:02;29.07;;;26.10;;
37001;SDS011;22913;51.910;8.374;2022-10-18T10:48:51;29.50;;;26.50;;
37001;SDS011;22913;51.910;8.374;2022-10-18T10:51:40;29.87;;;26.77;;
37001;SDS011;22913;51.910;8.374;2022-10-18T10:54:26;28.00;;;25.10;;
37001;SDS011;22913;51.910;8.374;2022-10-18T10:57:18;29.53;;;26.43;;
37001;SDS011;22913;51.910;8.374;2022-10-18T11:00:29;28.43;;;25.60;;
37001;SDS011;22913;51.910;8.374;2022-10-18T11:03:24;31.13;;;27.80;;
37001;SDS011;22913;51.910;8.374;2022-10-18T11:06:12;28.03;;;25.13;;
37001;SDS011;22913;51.910;8.374;2022-10-18T11:09:23;27.00;;;24.10;;
37001;SDS011;22913;51.910;8.374;2022-10-18T11:12:32;24.80;;;21.90;;
37001;SDS011;22913;51.910;8.374;2022-10-18T11:15:21;24.23;;;21.80;;
37001;SDS011;22913;51.910;8.374;2022-10-18T11:18:16;23.47;;;20.97;;
37001;SDS011;22913;51.910;8.374;2022-10-18T11:21:06;25.93;;;20.03;;
37001;SDS011;22913;51.910;8.374;2022-10-18T11:23:54;22.90;;;19.10;;
37001;SDS011;22913;51.910;8.374;2022-10-18T11:26:41;19.83;;;17.80;;
37001;SDS011;22913;51.910;8.374;2022-10-18T11:29:38;21.57;;;17.00;;
37001;SDS011;22913;51.910;8.374;2022-10-18T11:32:33;19.23;;;15.50;;
37001;SDS011;22913;51.910;8.374;2022-10-18T11:35:30;16.63;;;14.70;;
37001;SDS011;22913;51.910;8.374;2022-10-18T11:38:29;17.03;;;15.17;;
37001;SDS011;22913;51.910;8.374;2022-10-18T11:41:21;15.87;;;14.30;;
37001;SDS011;22913;51.910;8.374;2022-10-18T11:44:16;17.20;;;13.83;;
37001;SDS011;22913;51.910;8.374;2022-10-18T11:47:12;15.23;;;12.77;;
37001;SDS011;22913;51.910;8.374;2022-10-18T11:50:08;12.10;;;10.77;;
37001;SDS011;22913;51.910;8.374;2022-10-18T11:53:04;12.93;;;11.27;;
37001;SDS011;22913;51.910;8.374;2022-10-18T11:55:57;12.47;;;10.40;;
37001;SDS011;22913;51.910;8.374;2022-10-18T11:58:59;11.57;;;10.40;;
37001;SDS011;22913;51.910;8.374;2022-10-18T12:01:56;10.87;;;9.60;;
37001;SDS011;22913;51.910;8.374;2022-10-18T12:04:57;12.50;;;10.63;;
37001;SDS011;22913;51.910;8.374;2022-10-18T12:07:46;10.80;;;9.70;;
37001;SDS011;22913;51.910;8.374;2022-10-18T12:10:43;10.30;;;9.27;;
37001;SDS011;22913;51.910;8.374;2022-10-18T12:13:34;10.33;;;9.30;;
37001;SDS011;22913;51.910;8.374;2022-10-18T12:16:26;10.03;;;8.77;;
37001;SDS011;22913;51.910;8.374;2022-10-18T12:19:15;10.00;;;8.37;;
37001;SDS011;22913;51.910;8.374;2022-10-18T12:22:05;9.70;;;8.70;;
37001;SDS011;22913;51.910;8.374;2022-10-18T12:24:57;10.13;;;8.63;;
37001;SDS011;22913;51.910;8.374;2022-10-18T12:27:45;12.20;;;9.53;;
37001;SDS011;22913;51.910;8.374;2022-10-18T12:30:39;11.53;;;10.27;;
37001;SDS011;22913;51.910;8.374;2022-10-18T12:33:35;12.80;;;9.60;;
37001;SDS011;22913;51.910;8.374;2022-10-18T12:36:28;12.67;;;10.50;;
37001;SDS011;22913;51.910;8.374;2022-10-18T12:39:26;11.50;;;8.53;;
37001;SDS011;22913;51.910;8.374;2022-10-18T12:42:17;9.40;;;8.40;;
37001;SDS011;22913;51.910;8.374;2022-10-18T12:45:18;10.53;;;9.00;;
37001;SDS011;22913;51.910;8.374;2022-10-18T12:48:15;9.87;;;8.20;;
37001;SDS011;22913;51.910;8.374;2022-10-18T12:51:13;12.27;;;8.20;;
37001;SDS011;22913;51.910;8.374;2022-10-18T12:54:08;9.90;;;8.90;;
37001;SDS011;22913;51.910;8.374;2022-10-18T12:56:55;11.00;;;8.93;;
37001;SDS011;22913;51.910;8.374;2022-10-18T12:59:42;11.80;;;7.27;;
37001;SDS011;22913;51.910;8.374;2022-10-18T13:02:32;10.43;;;7.90;;
37001;SDS011;22913;51.910;8.374;2022-10-18T13:08:39;12.30;;;7.43;;
37001;SDS011;22913;51.910;8.374;2022-10-18T13:11:30;12.63;;;6.97;;
37001;SDS011;22913;51.910;8.374;2022-10-18T13:17:44;7.40;;;6.13;;
37001;SDS011;22913;51.910;8.374;2022-10-18T13:20:36;8.03;;;5.40;;
37001;SDS011;22913;51.910;8.374;2022-10-18T13:23:29;8.80;;;5.37;;
37001;SDS011;22913;51.910;8.374;2022-10-18T13:26:23;8.57;;;4.80;;
37001;SDS011;22913;51.910;8.374;2022-10-18T13:29:24;7.70;;;4.53;;
37001;SDS011;22913;51.910;8.374;2022-10-18T13:32:22;8.87;;;4.57;;
37001;SDS011;22913;51.910;8.374;2022-10-18T13:38:34;7.90;;;4.00;;
37001;SDS011;22913;51.910;8.374;2022-10-18T13:41:26;8.47;;;3.63;;
37001;SDS011;22913;51.910;8.374;2022-10-18T13:44:24;10.47;;;4.17;;
37001;SDS011;22913;51.910;8.374;2022-10-18T13:47:12;8.40;;;4.10;;
37001;SDS011;22913;51.910;8.374;2022-10-18T13:53:23;7.70;;;4.10;;
37001;SDS011;22913;51.910;8.374;2022-10-18T13:56:40;6.57;;;4.57;;
37001;SDS011;22913;51.910;8.374;2022-10-18T14:00:01;7.00;;;4.10;;
37001;SDS011;22913;51.910;8.374;2022-10-18T14:03:09;6.57;;;3.10;;
37001;SDS011;22913;51.910;8.374;2022-10-18T14:06:05;8.10;;;3.80;;
37001;SDS011;22913;51.910;8.374;2022-10-18T14:08:56;7.47;;;3.67;;
37001;SDS011;22913;51.910;8.374;2022-10-18T14:11:47;4.83;;;3.37;;
37001;SDS011;22913;51.910;8.374;2022-10-18T14:14:36;6.60;;;3.40;;
37001;SDS011;22913;51.910;8.374;2022-10-18T14:17:28;6.00;;;2.90;;
37001;SDS011;22913;51.910;8.374;2022-10-18T14:20:21;5.37;;;2.93;;
37001;SDS011;22913;51.910;8.374;2022-10-18T14:23:10;7.47;;;3.23;;
37001;SDS011;22913;51.910;8.374;2022-10-18T14:26:06;5.20;;;2.67;;
37001;SDS011;22913;51.910;8.374;2022-10-18T14:29:03;4.97;;;2.77;;
37001;SDS011;22913;51.910;8.374;2022-10-18T14:31:51;5.87;;;3.13;;
37001;SDS011;22913;51.910;8.374;2022-10-18T14:34:41;4.40;;;3.00;;
37001;SDS011;22913;51.910;8.374;2022-10-18T14:37:29;5.17;;;2.40;;
37001;SDS011;22913;51.910;8.374;2022-10-18T14:40:28;7.90;;;3.07;;
37001;SDS011;22913;51.910;8.374;2022-10-18T14:43:18;5.90;;;2.73;;
37001;SDS011;22913;51.910;8.374;2022-10-18T14:46:08;5.73;;;2.50;;
37001;SDS011;22913;51.910;8.374;2022-10-18T14:48:59;3.33;;;2.50;;
37001;SDS011;22913;51.910;8.374;2022-10-18T14:51:49;5.20;;;2.53;;
37001;SDS011;22913;51.910;8.374;2022-10-18T14:54:36;5.23;;;2.63;;
37001;SDS011;22913;51.910;8.374;2022-10-18T14:57:22;3.63;;;2.70;;
37001;SDS011;22913;51.910;8.374;2022-10-18T15:00:17;7.17;;;2.90;;
37001;SDS011;22913;51.910;8.374;2022-10-18T15:03:09;10.10;;;2.87;;
37001;SDS011;22913;51.910;8.374;2022-10-18T15:06:00;6.30;;;2.77;;
37001;SDS011;22913;51.910;8.374;2022-10-18T15:08:48;6.00;;;2.77;;
37001;SDS011;22913;51.910;8.374;2022-10-18T15:11:38;4.63;;;2.63;;
37001;SDS011;22913;51.910;8.374;2022-10-18T15:14:25;8.33;;;2.70;;
37001;SDS011;22913;51.910;8.374;2022-10-18T15:17:14;5.23;;;2.50;;
37001;SDS011;22913;51.910;8.374;2022-10-18T15:20:17;4.97;;;2.87;;
37001;SDS011;22913;51.910;8.374;2022-10-18T15:23:17;5.40;;;2.43;;
37001;SDS011;22913;51.910;8.374;2022-10-18T15:26:07;4.60;;;2.43;;
37001;SDS011;22913;51.910;8.374;2022-10-18T15:28:56;6.53;;;2.43;;
37001;SDS011;22913;51.910;8.374;2022-10-18T15:31:42;5.03;;;2.63;;
37001;SDS011;22913;51.910;8.374;2022-10-18T15:34:29;5.13;;;2.60;;
37001;SDS011;22913;51.910;8.374;2022-10-18T15:37:15;7.20;;;2.67;;
37001;SDS011;22913;51.910;8.374;2022-10-18T15:40:18;6.37;;;2.23;;
37001;SDS011;22913;51.910;8.374;2022-10-18T15:43:34;6.20;;;2.43;;
37001;SDS011;22913;51.910;8.374;2022-10-18T15:46:27;6.30;;;2.63;;
37001;SDS011;22913;51.910;8.374;2022-10-18T15:52:39;4.20;;;2.30;;
37001;SDS011;22913;51.910;8.374;2022-10-18T15:55:43;6.80;;;2.90;;
37001;SDS011;22913;51.910;8.374;2022-10-18T15:58:35;4.23;;;2.20;;
37001;SDS011;22913;51.910;8.374;2022-10-18T16:01:25;6.83;;;2.33;;
37001;SDS011;22913;51.910;8.374;2022-10-18T16:04:26;7.23;;;2.90;;
37001;SDS011;22913;51.910;8.374;2022-10-18T16:07:15;7.80;;;3.50;;
37001;SDS011;22913;51.910;8.374;2022-10-18T16:10:00;7.77;;;3.50;;
37001;SDS011;22913;51.910;8.374;2022-10-18T16:12:46;6.07;;;3.03;;
37001;SDS011;22913;51.910;8.374;2022-10-18T16:15:32;6.30;;;3.20;;
37001;SDS011;22913;51.910;8.374;2022-10-18T16:18:18;6.47;;;3.87;;
37001;SDS011;22913;51.910;8.374;2022-10-18T16:21:04;9.77;;;4.10;;
37001;SDS011;22913;51.910;8.374;2022-10-18T16:23:52;8.40;;;4.60;;
37001;SDS011;22913;51.910;8.374;2022-10-18T16:26:38;10.50;;;6.10;;
37001;SDS011;22913;51.910;8.374;2022-10-18T16:29:23;9.40;;;5.80;;
37001;SDS011;22913;51.910;8.374;2022-10-18T16:32:11;8.47;;;4.83;;
37001;SDS011;22913;51.910;8.374;2022-10-18T16:34:56;11.93;;;7.03;;
37001;SDS011;22913;51.910;8.374;2022-10-18T16:37:42;8.47;;;5.03;;
37001;SDS011;22913;51.910;8.374;2022-10-18T16:40:29;6.20;;;4.60;;
37001;SDS011;22913;51.910;8.374;2022-10-18T16:43:14;7.73;;;6.10;;
37001;SDS011;22913;51.910;8.374;2022-10-18T16:46:00;14.53;;;8.53;;
37001;SDS011;22913;51.910;8.374;2022-10-18T16:48:47;16.77;;;9.90;;
37001;SDS011;22913;51.910;8.374;2022-10-18T16:51:34;21.40;;;14.47;;
37001;SDS011;22913;51.910;8.374;2022-10-18T16:54:19;24.93;;;16.27;;
37001;SDS011;22913;51.910;8.374;2022-10-18T16:57:07;29.00;;;16.40;;
37001;SDS011;22913;51.910;8.374;2022-10-18T16:59:55;15.47;;;11.13;;
37001;SDS011;22913;51.910;8.374;2022-10-18T17:02:41;12.70;;;8.60;;
37001;SDS011;22913;51.910;8.374;2022-10-18T17:05:26;13.80;;;8.07;;
37001;SDS011;22913;51.910;8.374;2022-10-18T17:08:15;13.93;;;7.63;;
37001;SDS011;22913;51.910;8.374;2022-10-18T17:11:03;13.03;;;6.20;;
37001;SDS011;22913;51.910;8.374;2022-10-18T17:13:50;12.67;;;7.53;;
37001;SDS011;22913;51.910;8.374;2022-10-18T17:16:36;13.80;;;8.57;;
37001;SDS011;22913;51.910;8.374;2022-10-18T17:19:22;17.43;;;10.07;;
37001;SDS011;22913;51.910;8.374;2022-10-18T17:22:08;12.17;;;7.40;;